createdAt,value
2023-08-11T00:00:22.362Z,2.27
2023-08-11T00:02:53.291Z,2.20
2023-08-11T00:05:21.421Z,1.80
2023-08-11T00:07:52.267Z,1.90
2023-08-11T00:10:20.747Z,1.60
2023-08-11T00:12:48.792Z,2.40
2023-08-11T00:15:16.151Z,1.90
2023-08-11T00:17:43.532Z,2.20
2023-08-11T00:20:13.790Z,1.97
2023-08-11T00:22:41.023Z,1.90
2023-08-11T00:25:09.321Z,2.00
2023-08-11T00:27:36.544Z,1.53
2023-08-11T00:30:05.537Z,1.90
2023-08-11T00:32:32.945Z,1.83
2023-08-11T00:35:00.743Z,1.80
2023-08-11T00:37:27.993Z,1.97
2023-08-11T00:39:55.387Z,1.63
2023-08-11T00:42:23.889Z,2.10
2023-08-11T00:44:51.432Z,2.10
2023-08-11T00:47:19.056Z,1.60
2023-08-11T00:49:46.355Z,1.70
2023-08-11T00:52:13.716Z,1.80
2023-08-11T00:54:42.270Z,2.27
2023-08-11T00:57:10.130Z,1.73
2023-08-11T00:59:37.727Z,1.80
2023-08-11T01:02:05.857Z,2.30
2023-08-11T01:04:34.330Z,1.83
2023-08-11T01:07:18.542Z,1.80
2023-08-11T01:10:00.896Z,2.20
2023-08-11T01:12:42.940Z,1.80
2023-08-11T01:15:23.508Z,2.17
2023-08-11T01:17:52.022Z,2.03
2023-08-11T01:20:21.784Z,2.30
2023-08-11T01:22:55.269Z,2.30
2023-08-11T01:25:23.182Z,2.20
2023-08-11T01:27:58.893Z,2.03
2023-08-11T01:30:28.701Z,1.90
2023-08-11T01:32:57.318Z,2.00
2023-08-11T01:35:38.373Z,1.93
2023-08-11T01:38:12.969Z,2.10
2023-08-11T01:40:41.292Z,1.97
2023-08-11T01:43:11.942Z,1.50
2023-08-11T01:45:40.385Z,1.87
2023-08-11T01:48:11.028Z,1.83
2023-08-11T01:50:39.311Z,2.17
2023-08-11T01:53:06.874Z,1.60
2023-08-11T01:55:35.170Z,1.80
2023-08-11T01:58:03.316Z,1.80
2023-08-11T02:00:30.585Z,1.70
2023-08-11T02:02:59.256Z,1.63
2023-08-11T02:05:27.394Z,2.00
2023-08-11T02:07:57.130Z,1.63
2023-08-11T02:10:24.842Z,2.27
2023-08-11T02:12:52.282Z,2.37
2023-08-11T02:15:19.903Z,1.80
2023-08-11T02:17:47.839Z,1.77
2023-08-11T02:20:23.997Z,2.17
2023-08-11T02:22:53.688Z,1.70
2023-08-11T02:25:23.001Z,2.10
2023-08-11T02:27:51.801Z,1.90
2023-08-11T02:30:19.726Z,2.00
2023-08-11T02:32:47.238Z,1.80
2023-08-11T02:35:18.405Z,1.70
2023-08-11T02:37:46.020Z,1.70
2023-08-11T02:40:13.877Z,1.90
2023-08-11T02:42:49.339Z,2.00
2023-08-11T02:45:16.942Z,2.10
2023-08-11T02:47:44.354Z,2.10
2023-08-11T02:50:12.311Z,2.00
2023-08-11T02:52:40.102Z,2.90
2023-08-11T02:55:08.849Z,2.30
2023-08-11T02:57:36.782Z,2.10
2023-08-11T03:00:11.287Z,1.83
2023-08-11T03:02:38.698Z,1.93
2023-08-11T03:05:08.486Z,1.90
2023-08-11T03:07:39.104Z,1.70
2023-08-11T03:10:07.630Z,1.97
2023-08-11T03:12:37.153Z,2.20
2023-08-11T03:15:06.409Z,2.00
2023-08-11T03:17:36.583Z,1.70
2023-08-11T03:20:08.972Z,1.87
2023-08-11T03:22:36.286Z,2.10
2023-08-11T03:25:05.066Z,1.87
2023-08-11T03:27:32.488Z,2.13
2023-08-11T03:30:00.307Z,2.10
2023-08-11T03:32:28.079Z,2.17
2023-08-11T03:34:56.177Z,1.83
2023-08-11T03:37:23.418Z,1.97
2023-08-11T03:39:50.649Z,2.30
2023-08-11T03:42:18.469Z,2.10
2023-08-11T03:44:46.133Z,2.47
2023-08-11T03:47:13.861Z,1.90
2023-08-11T03:49:42.457Z,2.23
2023-08-11T03:52:09.920Z,1.83
2023-08-11T03:54:45.160Z,1.93
2023-08-11T03:57:16.315Z,2.57
2023-08-11T03:59:45.062Z,2.40
2023-08-11T04:02:14.169Z,2.47
2023-08-11T04:04:42.033Z,2.43
2023-08-11T04:07:09.276Z,2.07
2023-08-11T04:09:41.017Z,2.60
2023-08-11T04:12:08.760Z,2.50
2023-08-11T04:14:38.508Z,2.33
2023-08-11T04:17:05.802Z,2.47
2023-08-11T04:19:33.149Z,2.53
2023-08-11T04:22:00.518Z,3.17
2023-08-11T04:24:28.670Z,2.53
2023-08-11T04:26:57.395Z,2.80
2023-08-11T04:29:25.214Z,3.03
2023-08-11T04:31:53.052Z,2.30
2023-08-11T04:34:21.555Z,2.90
2023-08-11T04:36:48.803Z,2.53
2023-08-11T04:39:16.872Z,2.63
2023-08-11T04:41:44.761Z,2.50
2023-08-11T04:44:12.014Z,2.87
2023-08-11T04:46:39.728Z,2.43
2023-08-11T04:49:07.549Z,2.50
2023-08-11T04:51:34.916Z,2.50
2023-08-11T04:54:04.075Z,2.30
2023-08-11T04:56:31.363Z,3.10
2023-08-11T04:58:58.659Z,2.60
2023-08-11T05:01:26.069Z,3.10
2023-08-11T05:03:54.077Z,2.50
2023-08-11T05:06:21.381Z,3.10
2023-08-11T05:08:48.654Z,2.50
2023-08-11T05:11:15.874Z,2.40
2023-08-11T05:13:44.174Z,2.30
2023-08-11T05:16:11.424Z,2.47
2023-08-11T05:18:43.994Z,3.10
2023-08-11T05:21:14.953Z,3.10
2023-08-11T05:23:42.892Z,2.93
2023-08-11T05:26:10.172Z,2.23
2023-08-11T05:28:37.508Z,2.70
2023-08-11T05:31:05.612Z,2.90
2023-08-11T05:33:35.823Z,2.53
2023-08-11T05:36:03.740Z,2.57
2023-08-11T05:38:31.008Z,2.77
2023-08-11T05:40:58.377Z,2.87
2023-08-11T05:43:25.674Z,2.83
2023-08-11T05:45:53.004Z,2.73
2023-08-11T05:48:20.271Z,2.40
2023-08-11T05:50:47.913Z,2.87
2023-08-11T05:53:15.199Z,2.87
2023-08-11T05:55:42.454Z,2.63
2023-08-11T05:58:10.780Z,2.67
2023-08-11T06:00:38.429Z,2.13
2023-08-11T06:03:05.667Z,2.57
2023-08-11T06:05:32.966Z,2.77
2023-08-11T06:08:06.692Z,2.43
2023-08-11T06:10:34.727Z,2.40
2023-08-11T06:13:02.426Z,2.60
2023-08-11T06:15:31.411Z,2.57
2023-08-11T06:17:58.868Z,2.80
2023-08-11T06:20:38.788Z,2.80
2023-08-11T06:23:09.383Z,2.40
2023-08-11T06:25:37.568Z,2.50
2023-08-11T06:28:05.526Z,2.83
2023-08-11T06:30:32.768Z,3.47
2023-08-11T06:33:00.255Z,2.97
2023-08-11T06:35:27.954Z,2.97
2023-08-11T06:37:55.339Z,3.00
2023-08-11T06:40:22.757Z,2.93
2023-08-11T06:42:49.984Z,2.83
2023-08-11T06:45:19.945Z,3.10
2023-08-11T06:47:47.278Z,3.10
2023-08-11T06:50:14.794Z,3.30
2023-08-11T06:52:42.064Z,2.60
2023-08-11T06:55:09.973Z,2.60
2023-08-11T06:57:38.181Z,3.13
2023-08-11T07:00:08.272Z,2.73
2023-08-11T07:02:36.316Z,2.70
2023-08-11T07:05:04.021Z,2.33
2023-08-11T07:07:31.415Z,2.73
2023-08-11T07:10:01.495Z,3.17
2023-08-11T07:12:30.761Z,3.13
2023-08-11T07:14:58.065Z,2.93
2023-08-11T07:17:25.706Z,2.70
2023-08-11T07:19:53.000Z,3.10
2023-08-11T07:22:20.260Z,2.40
2023-08-11T07:24:48.010Z,3.20
2023-08-11T07:27:17.554Z,2.90
2023-08-11T07:29:46.370Z,3.10
2023-08-11T07:32:13.636Z,3.10
2023-08-11T07:34:41.775Z,3.07
2023-08-11T07:37:09.655Z,3.43
2023-08-11T07:39:37.253Z,2.80
2023-08-11T07:42:04.788Z,2.30
2023-08-11T07:44:34.229Z,2.90
2023-08-11T07:47:03.647Z,3.03
2023-08-11T07:49:31.054Z,2.70
2023-08-11T07:51:58.506Z,3.00
2023-08-11T07:54:25.945Z,2.80
2023-08-11T07:56:53.995Z,3.10
2023-08-11T07:59:21.276Z,3.17
2023-08-11T08:01:48.779Z,2.63
2023-08-11T08:04:16.169Z,2.60
2023-08-11T08:06:46.697Z,2.90
2023-08-11T08:09:15.791Z,2.70
2023-08-11T08:11:45.120Z,2.90
2023-08-11T08:14:13.572Z,2.80
2023-08-11T08:16:48.598Z,2.90
2023-08-11T08:19:16.235Z,3.10
2023-08-11T08:21:43.981Z,2.70
2023-08-11T08:24:12.386Z,2.57
2023-08-11T08:26:39.610Z,2.70
2023-08-11T08:29:07.280Z,2.97
2023-08-11T08:31:34.543Z,2.60
2023-08-11T08:34:01.901Z,3.43
2023-08-11T08:36:29.379Z,3.93
2023-08-11T08:38:56.645Z,2.90
2023-08-11T08:41:29.256Z,3.27
2023-08-11T08:43:57.297Z,2.53
2023-08-11T08:46:31.347Z,3.23
2023-08-11T08:49:21.285Z,2.30
2023-08-11T08:51:49.284Z,3.10
2023-08-11T08:54:16.953Z,2.80
2023-08-11T08:56:45.040Z,2.50
2023-08-11T08:59:12.535Z,2.90
2023-08-11T09:01:40.103Z,3.17
2023-08-11T09:04:09.216Z,2.80
2023-08-11T09:06:36.835Z,2.90
2023-08-11T09:09:05.803Z,2.70
2023-08-11T09:11:34.008Z,2.63
2023-08-11T09:14:05.026Z,2.30
2023-08-11T09:16:34.862Z,2.43
2023-08-11T09:19:03.496Z,4.27
2023-08-11T09:21:31.786Z,2.30
2023-08-11T09:23:59.143Z,2.10
2023-08-11T09:26:26.621Z,2.27
2023-08-11T09:28:55.765Z,2.00
2023-08-11T09:31:26.482Z,2.13
2023-08-11T09:33:53.895Z,1.90
2023-08-11T09:36:21.640Z,1.80
2023-08-11T09:38:50.650Z,1.90
2023-08-11T09:41:18.256Z,2.00
2023-08-11T09:43:49.801Z,1.50
2023-08-11T09:46:26.188Z,1.37
2023-08-11T09:48:57.376Z,1.37
2023-08-11T09:51:24.997Z,1.57
2023-08-11T09:53:53.491Z,1.30
2023-08-11T09:56:22.494Z,1.50
2023-08-11T09:58:53.489Z,1.47
2023-08-11T10:01:22.649Z,1.80
2023-08-11T10:03:50.439Z,1.20
2023-08-11T10:06:21.476Z,1.40
2023-08-11T10:08:51.023Z,1.20
2023-08-11T10:11:20.062Z,1.30
2023-08-11T10:13:48.360Z,1.40
2023-08-11T10:16:15.737Z,1.00
2023-08-11T10:18:44.713Z,1.13
2023-08-11T10:21:13.401Z,1.10
2023-08-11T10:23:41.707Z,1.13
2023-08-11T10:26:09.652Z,1.00
2023-08-11T10:28:37.751Z,1.13
2023-08-11T10:31:06.668Z,1.47
2023-08-11T10:33:35.396Z,1.10
2023-08-11T10:36:02.967Z,1.03
2023-08-11T10:38:31.864Z,1.07
2023-08-11T10:41:04.528Z,0.80
2023-08-11T10:43:34.325Z,0.90
2023-08-11T10:46:22.676Z,0.80
2023-08-11T10:48:52.003Z,1.00
2023-08-11T10:51:37.551Z,1.20
2023-08-11T10:54:07.779Z,1.17
2023-08-11T10:56:39.781Z,0.90
2023-08-11T10:59:26.846Z,1.00
2023-08-11T11:01:56.115Z,1.13
2023-08-11T11:04:27.285Z,1.27
2023-08-11T11:06:54.764Z,1.40
2023-08-11T11:09:23.137Z,1.10
2023-08-11T11:11:52.548Z,1.00
2023-08-11T11:14:20.325Z,1.07
2023-08-11T11:16:48.425Z,1.80
2023-08-11T11:19:15.786Z,0.93
2023-08-11T11:21:43.093Z,1.27
2023-08-11T11:24:11.230Z,1.20
2023-08-11T11:26:38.776Z,1.10
2023-08-11T11:29:06.916Z,1.07
2023-08-11T11:31:37.075Z,1.20
2023-08-11T11:34:06.496Z,1.93
2023-08-11T11:36:35.018Z,1.33
2023-08-11T11:39:05.374Z,1.30
2023-08-11T11:41:33.556Z,1.00
2023-08-11T11:44:02.474Z,1.00
2023-08-11T11:46:34.768Z,1.30
2023-08-11T11:49:15.743Z,1.17
2023-08-11T11:51:44.192Z,1.10
2023-08-11T11:54:12.012Z,1.20
2023-08-11T11:56:47.253Z,0.90
2023-08-11T11:59:23.706Z,0.73
2023-08-11T12:01:51.372Z,0.90
2023-08-11T12:04:19.015Z,0.97
2023-08-11T12:06:48.374Z,0.93
2023-08-11T12:09:15.800Z,1.20
2023-08-11T12:11:43.099Z,1.07
2023-08-11T12:14:12.733Z,0.83
2023-08-11T12:16:40.028Z,1.07
2023-08-11T12:19:10.619Z,0.87
2023-08-11T12:21:38.359Z,0.93
2023-08-11T12:24:09.228Z,1.10
2023-08-11T12:26:36.928Z,1.00
2023-08-11T12:29:06.350Z,1.00
2023-08-11T12:31:33.658Z,0.80
2023-08-11T12:34:02.562Z,1.00
2023-08-11T12:36:29.959Z,1.10
2023-08-11T12:38:57.693Z,0.90
2023-08-11T12:41:25.028Z,1.17
2023-08-11T12:43:52.663Z,1.10
2023-08-11T12:46:19.946Z,1.20
2023-08-11T12:48:47.602Z,1.00
2023-08-11T12:51:14.983Z,0.83
2023-08-11T12:53:42.248Z,0.70
2023-08-11T12:56:09.562Z,0.90
2023-08-11T12:58:36.833Z,0.70
2023-08-11T13:01:07.759Z,0.87
2023-08-11T13:03:35.642Z,1.20
2023-08-11T13:06:02.960Z,0.87
2023-08-11T13:08:30.199Z,1.20
2023-08-11T13:10:58.311Z,0.90
2023-08-11T13:13:25.470Z,0.90
2023-08-11T13:15:53.942Z,1.00
2023-08-11T13:18:21.314Z,0.93
2023-08-11T13:20:49.086Z,1.13
2023-08-11T13:23:16.359Z,1.13
2023-08-11T13:25:43.632Z,1.07
2023-08-11T13:28:10.879Z,1.07
2023-08-11T13:30:39.728Z,1.20
2023-08-11T13:33:08.195Z,1.20
2023-08-11T13:35:35.437Z,1.20
2023-08-11T13:38:03.383Z,1.00
2023-08-11T13:40:30.637Z,1.30
2023-08-11T13:42:57.860Z,0.90
2023-08-11T13:45:26.201Z,1.10
2023-08-11T13:47:54.552Z,1.10
2023-08-11T13:50:22.537Z,1.13
2023-08-11T13:52:50.349Z,1.00
2023-08-11T13:55:17.982Z,1.10
2023-08-11T13:57:49.097Z,1.30
2023-08-11T14:00:17.142Z,0.80
2023-08-11T14:02:44.385Z,1.30
2023-08-11T14:05:11.710Z,1.10
2023-08-11T14:07:39.110Z,1.10
2023-08-11T14:10:06.976Z,1.20
2023-08-11T14:12:34.509Z,1.10
2023-08-11T14:15:02.936Z,1.17
2023-08-11T14:17:30.158Z,1.00
2023-08-11T14:19:57.411Z,1.10
2023-08-11T14:22:24.649Z,0.90
2023-08-11T14:24:53.397Z,1.17
2023-08-11T14:27:23.099Z,1.13
2023-08-11T14:29:50.311Z,1.10
2023-08-11T14:32:24.749Z,1.00
2023-08-11T14:34:53.861Z,1.00
2023-08-11T14:37:22.191Z,1.10
2023-08-11T14:39:49.806Z,0.97
2023-08-11T14:42:18.332Z,1.00
2023-08-11T14:44:45.626Z,0.97
2023-08-11T14:47:14.901Z,1.10
2023-08-11T14:49:44.025Z,1.20
2023-08-11T14:55:01.282Z,1.30
2023-08-11T14:57:29.052Z,1.17
2023-08-11T14:59:56.508Z,1.00
2023-08-11T15:02:24.428Z,1.10
2023-08-11T15:04:54.501Z,1.00
2023-08-11T15:07:22.232Z,1.23
2023-08-11T15:09:49.757Z,1.10
2023-08-11T15:12:17.061Z,1.00
2023-08-11T15:14:44.301Z,1.30
2023-08-11T15:17:14.691Z,1.00
2023-08-11T15:19:41.900Z,1.10
2023-08-11T15:22:09.350Z,1.03
2023-08-11T15:24:37.831Z,1.20
2023-08-11T15:27:05.322Z,0.93
2023-08-11T15:29:32.524Z,1.00
2023-08-11T15:31:59.781Z,0.90
2023-08-11T15:34:27.088Z,0.90
2023-08-11T15:36:54.409Z,0.90
2023-08-11T15:39:22.388Z,1.00
2023-08-11T15:41:50.353Z,1.00
2023-08-11T15:44:20.799Z,1.00
2023-08-11T15:46:49.555Z,1.10
2023-08-11T15:49:16.853Z,1.07
2023-08-11T15:51:44.107Z,0.90
2023-08-11T15:54:11.703Z,1.00
2023-08-11T15:56:39.322Z,0.80
2023-08-11T15:59:08.799Z,1.07
2023-08-11T16:01:36.044Z,0.73
2023-08-11T16:04:04.331Z,1.00
2023-08-11T16:06:31.748Z,0.80
2023-08-11T16:08:58.982Z,0.80
2023-08-11T16:11:26.790Z,0.70
2023-08-11T16:13:54.426Z,0.60
2023-08-11T16:16:21.675Z,1.00
2023-08-11T16:18:49.668Z,0.73
2023-08-11T16:21:16.911Z,0.70
2023-08-11T16:23:44.161Z,1.30
2023-08-11T16:26:11.891Z,0.80
2023-08-11T16:28:39.169Z,1.00
2023-08-11T16:31:07.361Z,0.90
2023-08-11T16:33:35.371Z,1.30
2023-08-11T16:36:03.375Z,1.00
2023-08-11T16:38:31.220Z,1.10
2023-08-11T16:40:58.489Z,1.03
2023-08-11T16:43:26.196Z,0.87
2023-08-11T16:45:53.473Z,0.77
2023-08-11T16:48:21.326Z,0.83
2023-08-11T16:50:49.238Z,0.90
2023-08-11T16:53:16.512Z,0.83
2023-08-11T16:55:44.626Z,0.80
2023-08-11T16:58:11.837Z,0.97
2023-08-11T17:00:39.272Z,1.20
2023-08-11T17:03:06.630Z,1.10
2023-08-11T17:05:34.148Z,1.20
2023-08-11T17:08:02.044Z,0.80
2023-08-11T17:10:29.269Z,0.90
2023-08-11T17:12:56.522Z,0.70
2023-08-11T17:15:23.901Z,1.20
2023-08-11T17:17:51.277Z,1.00
2023-08-11T17:20:18.557Z,0.80
2023-08-11T17:22:48.944Z,1.03
2023-08-11T17:25:18.198Z,0.80
2023-08-11T17:27:50.601Z,1.10
2023-08-11T17:30:18.413Z,1.03
2023-08-11T17:32:46.468Z,1.10
2023-08-11T17:35:14.057Z,1.17
2023-08-11T17:37:41.309Z,1.10
2023-08-11T17:40:09.875Z,1.17
2023-08-11T17:42:37.161Z,1.00
2023-08-11T17:45:05.058Z,1.00
2023-08-11T17:47:36.163Z,1.30
2023-08-11T17:50:04.793Z,1.10
2023-08-11T17:52:32.046Z,1.30
2023-08-11T17:54:59.621Z,1.17
2023-08-11T17:57:26.846Z,1.10
2023-08-11T17:59:54.438Z,1.20
2023-08-11T18:02:21.921Z,1.30
2023-08-11T18:04:49.249Z,1.30
2023-08-11T18:07:16.453Z,1.30
2023-08-11T18:09:43.679Z,1.40
2023-08-11T18:12:11.447Z,1.30
2023-08-11T18:14:51.828Z,1.60
2023-08-11T18:17:19.053Z,1.83
2023-08-11T18:19:47.063Z,1.50
2023-08-11T18:22:14.954Z,1.83
2023-08-11T18:24:42.371Z,1.60
2023-08-11T18:27:09.677Z,1.73
2023-08-11T18:29:36.953Z,2.17
2023-08-11T18:32:04.995Z,2.30
2023-08-11T18:34:32.217Z,2.60
2023-08-11T18:36:59.436Z,2.50
2023-08-11T18:39:27.413Z,2.00
2023-08-11T18:41:54.723Z,2.10
2023-08-11T18:44:23.076Z,1.97
2023-08-11T18:46:51.192Z,2.00
2023-08-11T18:49:18.860Z,2.27
2023-08-11T18:51:46.511Z,2.53
2023-08-11T18:54:14.621Z,2.87
2023-08-11T18:56:43.585Z,2.40
2023-08-11T18:59:11.346Z,2.20
2023-08-11T19:01:39.721Z,2.20
2023-08-11T19:04:08.301Z,2.17
2023-08-11T19:06:38.320Z,2.60
2023-08-11T19:09:11.890Z,2.53
2023-08-11T19:11:39.229Z,2.60
2023-08-11T19:14:10.143Z,2.20
2023-08-11T19:16:37.553Z,3.10
2023-08-11T19:19:05.373Z,3.10
2023-08-11T19:21:33.318Z,2.90
2023-08-11T19:24:00.718Z,2.80
2023-08-11T19:26:27.924Z,2.80
2023-08-11T19:28:56.340Z,2.70
2023-08-11T19:31:23.635Z,2.57
2023-08-11T19:33:50.897Z,3.20
2023-08-11T19:36:18.118Z,3.00
2023-08-11T19:38:45.683Z,2.43
2023-08-11T19:41:13.137Z,2.50
2023-08-11T19:43:41.121Z,3.10
2023-08-11T19:46:08.680Z,3.30
2023-08-11T19:48:36.721Z,3.57
2023-08-11T19:51:04.833Z,2.70
2023-08-11T19:53:32.074Z,3.27
2023-08-11T19:55:59.301Z,2.93
2023-08-11T19:58:26.938Z,2.90
2023-08-11T20:00:54.138Z,2.90
2023-08-11T20:03:21.451Z,2.77
2023-08-11T20:05:49.308Z,3.10
2023-08-11T20:08:16.691Z,3.03
2023-08-11T20:10:49.213Z,3.60
2023-08-11T20:13:17.815Z,2.50
2023-08-11T20:15:45.193Z,2.63
2023-08-11T20:18:12.834Z,3.40
2023-08-11T20:20:44.880Z,2.70
2023-08-11T20:23:12.421Z,2.83
2023-08-11T20:25:39.721Z,3.00
2023-08-11T20:28:06.963Z,2.97
2023-08-11T20:30:36.056Z,2.80
2023-08-11T20:33:03.608Z,2.43
2023-08-11T20:35:30.997Z,3.00
2023-08-11T20:37:58.334Z,3.63
2023-08-11T20:40:26.058Z,3.23
2023-08-11T20:42:53.574Z,3.53
2023-08-11T20:45:21.526Z,3.27
2023-08-11T20:47:49.186Z,3.23
2023-08-11T20:50:16.677Z,3.70
2023-08-11T20:52:43.965Z,2.80
2023-08-11T20:55:11.238Z,3.07
2023-08-11T20:57:38.525Z,3.37
2023-08-11T21:00:06.917Z,3.43
2023-08-11T21:02:34.371Z,2.93
2023-08-11T21:05:01.821Z,2.80
2023-08-11T21:07:29.049Z,2.90
2023-08-11T21:09:57.149Z,3.20
2023-08-11T21:12:24.397Z,3.30
2023-08-11T21:14:51.610Z,2.80
2023-08-11T21:17:18.971Z,2.60
2023-08-11T21:19:46.258Z,2.73
2023-08-11T21:22:14.059Z,3.20
2023-08-11T21:24:41.300Z,2.50
2023-08-11T21:27:08.683Z,2.30
2023-08-11T21:29:36.772Z,2.50
2023-08-11T21:32:04.751Z,2.50
2023-08-11T21:34:32.192Z,2.70
2023-08-11T21:37:01.778Z,2.70
2023-08-11T21:39:29.565Z,3.17
2023-08-11T21:41:56.783Z,2.33
2023-08-11T21:44:24.022Z,2.73
2023-08-11T21:46:51.420Z,2.97
2023-08-11T21:49:18.740Z,2.90
2023-08-11T21:51:45.988Z,2.60
2023-08-11T21:54:13.265Z,2.97
2023-08-11T21:56:40.494Z,2.70
2023-08-11T21:59:08.269Z,3.20
2023-08-11T22:01:35.469Z,3.20
2023-08-11T22:04:03.099Z,2.80
2023-08-11T22:06:30.324Z,2.67
2023-08-11T22:08:57.986Z,3.13
2023-08-11T22:11:35.893Z,2.73
2023-08-11T22:14:05.192Z,2.63
2023-08-11T22:16:35.639Z,3.00
2023-08-11T22:19:03.083Z,3.30
2023-08-11T22:21:31.040Z,2.63
2023-08-11T22:23:58.284Z,2.90
2023-08-11T22:26:25.524Z,2.90
2023-08-11T22:28:52.807Z,3.33
2023-08-11T22:31:20.094Z,2.83
2023-08-11T22:33:47.440Z,3.20
2023-08-11T22:36:15.505Z,2.90
2023-08-11T22:38:42.821Z,2.80
2023-08-11T22:41:10.066Z,3.37
2023-08-11T22:43:37.276Z,3.10
2023-08-11T22:46:05.346Z,2.80
2023-08-11T22:48:32.745Z,3.40
2023-08-11T22:51:00.366Z,3.47
2023-08-11T22:53:27.745Z,3.00
2023-08-11T22:55:55.816Z,3.37
2023-08-11T22:58:23.113Z,3.10
2023-08-11T23:00:50.341Z,3.30
2023-08-11T23:03:17.597Z,3.10
2023-08-11T23:05:44.813Z,3.27
2023-08-11T23:08:12.601Z,3.40
2023-08-11T23:10:39.839Z,3.20
2023-08-11T23:13:07.448Z,3.30
2023-08-11T23:15:34.670Z,4.00
2023-08-11T23:18:02.105Z,3.83
2023-08-11T23:20:29.399Z,3.83
2023-08-11T23:22:56.662Z,3.20
2023-08-11T23:25:23.902Z,3.03
2023-08-11T23:27:51.172Z,3.47
2023-08-11T23:30:18.377Z,3.30
2023-08-11T23:32:45.621Z,3.33
2023-08-11T23:35:13.253Z,3.90
2023-08-11T23:37:40.500Z,4.30
2023-08-11T23:40:08.399Z,4.83
2023-08-11T23:42:35.720Z,4.13
2023-08-11T23:45:06.731Z,4.87
2023-08-11T23:47:37.900Z,3.90
2023-08-11T23:50:05.547Z,3.87
2023-08-11T23:52:36.044Z,4.07
2023-08-11T23:55:06.781Z,4.50
2023-08-11T23:57:35.299Z,5.07
